createdAt,value
2023-02-12T00:00:01.693Z,5.00
2023-02-12T00:04:05.560Z,6.57
2023-02-12T00:08:08.730Z,5.05
2023-02-12T00:12:10.676Z,6.75
2023-02-12T00:16:18.058Z,6.13
2023-02-12T00:20:20.126Z,5.93
2023-02-12T00:24:22.198Z,5.88
2023-02-12T00:28:24.200Z,6.50
2023-02-12T00:32:26.006Z,11.05
2023-02-12T00:36:30.677Z,6.15
2023-02-12T00:40:32.784Z,10.27
2023-02-12T00:44:35.025Z,7.53
2023-02-12T00:48:38.415Z,9.00
2023-02-12T00:52:40.334Z,7.90
2023-02-12T00:56:43.191Z,9.13
2023-02-12T01:00:45.173Z,9.35
2023-02-12T01:04:47.200Z,12.90
2023-02-12T01:08:53.199Z,5.72
2023-02-12T01:12:55.803Z,5.97
2023-02-12T01:16:57.577Z,18.40
2023-02-12T01:20:59.687Z,7.90
2023-02-12T01:25:01.434Z,4.93
2023-02-12T01:29:06.291Z,4.05
2023-02-12T01:33:08.272Z,8.50
2023-02-12T01:37:09.993Z,7.18
2023-02-12T01:41:21.235Z,7.57
2023-02-12T01:45:23.893Z,5.30
2023-02-12T01:49:38.848Z,4.45
2023-02-12T01:53:46.957Z,6.88
2023-02-12T01:57:49.467Z,5.68
2023-02-12T02:01:53.354Z,8.07
2023-02-12T02:06:07.457Z,9.38
2023-02-12T02:10:10.985Z,4.00
2023-02-12T02:14:31.601Z,3.80
2023-02-12T02:18:40.820Z,3.42
2023-02-12T02:23:10.960Z,4.70
2023-02-12T02:27:20.633Z,3.30
2023-02-12T02:31:42.757Z,3.33
2023-02-12T02:35:57.594Z,6.78
2023-02-12T02:40:12.817Z,3.60
2023-02-12T02:44:20.473Z,2.60
2023-02-12T02:48:30.547Z,2.95
2023-02-12T02:52:49.657Z,4.93
2023-02-12T02:56:58.730Z,4.53
2023-02-12T03:01:06.126Z,4.50
2023-02-12T03:05:19.068Z,4.70
2023-02-12T03:09:35.207Z,2.08
2023-02-12T03:13:44.935Z,8.65
2023-02-12T03:17:49.251Z,3.58
2023-02-12T03:22:00.458Z,5.03
2023-02-12T03:26:09.659Z,4.85
2023-02-12T03:30:12.119Z,6.90
2023-02-12T03:34:23.728Z,4.38
2023-02-12T03:38:38.668Z,4.20
2023-02-12T03:43:02.367Z,6.20
2023-02-12T03:47:23.199Z,11.40
2023-02-12T03:51:38.280Z,9.98
2023-02-12T03:55:43.484Z,5.10
2023-02-12T03:59:45.840Z,5.50
2023-02-12T04:03:48.262Z,5.55
2023-02-12T04:07:51.908Z,9.95
2023-02-12T04:12:34.849Z,10.23
2023-02-12T04:16:45.865Z,5.97
2023-02-12T04:20:57.375Z,2.60
2023-02-12T04:25:16.364Z,4.07
2023-02-12T04:29:21.341Z,4.72
2023-02-12T04:33:27.717Z,2.42
2023-02-12T04:37:36.015Z,3.83
2023-02-12T04:45:42.766Z,1.98
2023-02-12T04:49:44.847Z,3.10
2023-02-12T04:53:47.586Z,3.90
2023-02-12T04:57:49.566Z,4.10
2023-02-12T05:01:51.749Z,2.15
2023-02-12T05:05:53.966Z,3.17
2023-02-12T05:09:56.096Z,2.30
2023-02-12T05:13:59.073Z,2.72
2023-02-12T05:18:01.164Z,4.97
2023-02-12T05:22:03.638Z,2.58
2023-02-12T05:26:14.907Z,4.38
2023-02-12T05:30:17.238Z,4.13
2023-02-12T05:34:20.290Z,5.78
2023-02-12T05:38:22.464Z,5.20
2023-02-12T05:42:24.665Z,7.18
2023-02-12T05:46:26.684Z,4.93
2023-02-12T05:50:28.776Z,3.13
2023-02-12T05:54:35.284Z,3.47
2023-02-12T05:58:37.499Z,3.20
2023-02-12T06:02:39.565Z,3.20
2023-02-12T06:06:42.327Z,3.15
2023-02-12T06:10:44.319Z,2.58
2023-02-12T06:14:46.396Z,7.00
2023-02-12T06:18:49.441Z,4.20
2023-02-12T06:22:51.390Z,4.45
2023-02-12T06:26:53.362Z,6.38
2023-02-12T06:30:55.423Z,4.20
2023-02-12T06:34:57.445Z,4.18
2023-02-12T06:39:02.347Z,4.80
2023-02-12T06:43:04.420Z,5.15
2023-02-12T06:47:06.315Z,6.95
2023-02-12T06:51:14.803Z,6.90
2023-02-12T06:55:17.196Z,9.32
2023-02-12T06:59:19.155Z,10.07
2023-02-12T07:03:21.121Z,5.45
2023-02-12T07:07:23.018Z,5.90
2023-02-12T07:11:30.826Z,6.60
2023-02-12T07:15:32.765Z,6.95
2023-02-12T07:19:34.730Z,6.82
2023-02-12T07:23:36.833Z,6.03
2023-02-12T07:27:39.144Z,5.95
2023-02-12T07:31:41.731Z,7.32
2023-02-12T07:35:43.897Z,5.85
2023-02-12T07:39:45.489Z,4.70
2023-02-12T07:43:49.389Z,6.00
2023-02-12T07:47:51.690Z,2.17
2023-02-12T07:51:55.907Z,4.63
2023-02-12T07:56:07.731Z,3.83
2023-02-12T08:00:10.581Z,3.25
2023-02-12T08:04:18.087Z,7.38
2023-02-12T08:08:20.269Z,6.57
2023-02-12T08:12:23.729Z,6.43
2023-02-12T08:16:27.714Z,4.07
2023-02-12T08:20:29.493Z,5.85
2023-02-12T08:24:31.543Z,5.35
2023-02-12T08:28:33.857Z,7.93
2023-02-12T08:32:35.689Z,5.20
2023-02-12T08:36:40.156Z,8.63
2023-02-12T08:40:42.247Z,3.15
2023-02-12T08:44:44.222Z,8.73
2023-02-12T08:48:46.676Z,8.68
2023-02-12T08:52:48.342Z,5.93
2023-02-12T08:56:50.831Z,3.20
2023-02-12T09:00:53.347Z,5.57
2023-02-12T09:04:55.463Z,3.40
2023-02-12T09:08:57.370Z,4.38
2023-02-12T09:12:59.529Z,3.70
2023-02-12T09:17:01.653Z,3.92
2023-02-12T09:21:06.715Z,3.22
2023-02-12T09:25:08.504Z,3.38
2023-02-12T09:29:10.534Z,8.25
2023-02-12T09:33:12.564Z,4.85
2023-02-12T09:37:14.586Z,20.10
2023-02-12T09:41:35.046Z,9.52
2023-02-12T09:45:51.307Z,9.10
2023-02-12T09:50:01.635Z,15.35
2023-02-12T09:54:14.181Z,9.55
2023-02-12T09:58:35.448Z,7.50
2023-02-12T10:02:39.903Z,4.65
2023-02-12T10:06:55.997Z,5.40
2023-02-12T10:11:38.357Z,6.80
2023-02-12T10:16:05.198Z,5.60
2023-02-12T10:20:34.897Z,13.43
2023-02-12T10:24:53.692Z,10.27
2023-02-12T10:33:07.584Z,5.40
2023-02-12T10:41:23.124Z,8.65
2023-02-12T10:45:36.295Z,7.05
2023-02-12T10:49:38.406Z,8.27
2023-02-12T10:53:43.370Z,11.27
2023-02-12T10:57:45.388Z,6.72
2023-02-12T11:01:47.931Z,8.95
2023-02-12T11:05:50.182Z,10.80
2023-02-12T11:09:54.764Z,10.32
2023-02-12T11:14:21.437Z,13.95
2023-02-12T11:18:26.248Z,9.98
2023-02-12T11:22:28.429Z,14.15
2023-02-12T11:26:31.219Z,8.55
2023-02-12T11:30:33.559Z,9.50
2023-02-12T11:34:36.546Z,13.32
2023-02-12T11:38:58.971Z,11.85
2023-02-12T11:43:05.780Z,9.35
2023-02-12T11:47:18.658Z,9.20
2023-02-12T11:51:29.719Z,10.35
2023-02-12T11:55:35.763Z,13.00
2023-02-12T11:59:42.877Z,8.50
2023-02-12T12:04:06.719Z,10.90
2023-02-12T12:08:19.463Z,11.70
2023-02-12T12:12:48.129Z,9.23
2023-02-12T12:17:19.213Z,11.13
2023-02-12T12:21:42.456Z,10.93
2023-02-12T12:25:52.483Z,9.63
2023-02-12T12:30:06.690Z,12.32
2023-02-12T12:34:13.355Z,9.63
2023-02-12T12:38:40.763Z,11.43
2023-02-12T12:43:14.281Z,13.80
2023-02-12T12:47:55.983Z,10.88
2023-02-12T12:52:23.742Z,10.77
2023-02-12T12:56:36.950Z,13.88
2023-02-12T13:00:57.204Z,14.48
2023-02-12T13:05:40.707Z,12.60
2023-02-12T13:10:04.427Z,11.00
2023-02-12T13:14:41.375Z,9.70
2023-02-12T13:19:07.599Z,9.25
2023-02-12T13:23:48.406Z,13.65
2023-02-12T13:27:51.907Z,10.43
2023-02-12T13:32:28.874Z,10.98
2023-02-12T13:36:31.056Z,13.02
2023-02-12T13:40:34.807Z,30.23
2023-02-12T13:44:43.669Z,12.77
2023-02-12T13:48:48.390Z,13.13
2023-02-12T13:53:02.429Z,13.93
2023-02-12T13:57:13.375Z,11.20
2023-02-12T14:01:36.370Z,36.92
2023-02-12T14:05:39.433Z,87.78
2023-02-12T14:09:51.756Z,21.40
2023-02-12T14:14:01.605Z,151.77
2023-02-12T14:18:07.065Z,118.43
2023-02-12T14:22:33.703Z,17.73
2023-02-12T14:26:38.273Z,20.98
2023-02-12T14:30:41.019Z,12.50
2023-02-12T14:34:42.803Z,19.98
2023-02-12T14:38:47.842Z,12.52
2023-02-12T14:42:56.258Z,14.70
2023-02-12T14:47:05.172Z,14.88
2023-02-12T14:51:16.917Z,15.63
2023-02-12T14:55:24.904Z,17.52
2023-02-12T14:59:32.535Z,22.55
2023-02-12T15:03:37.547Z,24.95
2023-02-12T15:07:52.324Z,22.85
2023-02-12T15:12:05.676Z,31.70
2023-02-12T15:16:15.418Z,30.55
2023-02-12T15:20:23.629Z,40.78
2023-02-12T15:24:27.052Z,94.65
2023-02-12T15:28:35.583Z,42.70
2023-02-12T15:36:45.840Z,208.10
2023-02-12T15:40:59.813Z,97.72
2023-02-12T15:45:14.966Z,213.35
2023-02-12T15:49:22.317Z,53.92
2023-02-12T15:53:28.167Z,58.17
2023-02-12T15:57:30.456Z,24.73
2023-02-12T16:01:35.370Z,28.77
2023-02-12T16:05:37.903Z,48.08
2023-02-12T16:09:42.381Z,62.05
2023-02-12T16:13:48.755Z,33.00
2023-02-12T16:17:51.340Z,68.00
2023-02-12T16:22:05.007Z,53.13
2023-02-12T16:26:07.131Z,122.18
2023-02-12T16:30:27.312Z,59.63
2023-02-12T16:34:36.146Z,101.53
2023-02-12T16:42:47.462Z,51.03
2023-02-12T16:46:55.626Z,103.78
2023-02-12T16:50:59.135Z,149.10
2023-02-12T16:55:01.974Z,58.38
2023-02-12T16:59:05.447Z,57.35
2023-02-12T17:03:10.477Z,52.78
2023-02-12T17:07:24.450Z,50.30
2023-02-12T17:11:28.304Z,48.65
2023-02-12T17:15:35.803Z,73.80
2023-02-12T17:19:38.191Z,81.88
2023-02-12T17:23:41.658Z,129.55
2023-02-12T17:27:43.700Z,140.23
2023-02-12T17:31:46.038Z,162.95
2023-02-12T17:35:48.129Z,138.05
2023-02-12T17:39:50.165Z,110.28
2023-02-12T17:43:52.321Z,89.53
2023-02-12T17:47:54.591Z,100.90
2023-02-12T17:51:56.685Z,88.25
2023-02-12T17:55:59.147Z,78.80
2023-02-12T18:00:01.330Z,83.38
2023-02-12T18:04:12.884Z,75.20
2023-02-12T18:08:14.886Z,62.53
2023-02-12T18:12:17.051Z,54.47
2023-02-12T18:16:19.541Z,62.30
2023-02-12T18:20:22.274Z,51.13
2023-02-12T18:24:24.292Z,41.97
2023-02-12T18:28:26.300Z,41.33
2023-02-12T18:32:28.488Z,41.25
2023-02-12T18:36:30.472Z,41.35
2023-02-12T18:40:32.419Z,42.65
2023-02-12T18:44:34.856Z,46.97
2023-02-12T18:48:37.001Z,55.67
2023-02-12T18:52:39.050Z,44.50
2023-02-12T18:56:44.396Z,56.42
2023-02-12T19:00:46.556Z,55.83
2023-02-12T19:04:48.573Z,55.10
2023-02-12T19:08:55.983Z,50.60
2023-02-12T19:12:58.811Z,57.17
2023-02-12T19:17:00.978Z,67.88
2023-02-12T19:21:14.277Z,53.85
2023-02-12T19:25:16.265Z,49.15
2023-02-12T19:29:18.414Z,58.40
2023-02-12T19:33:20.496Z,74.38
2023-02-12T19:37:22.985Z,59.85
2023-02-12T19:41:26.962Z,65.13
2023-02-12T19:45:28.997Z,65.38
2023-02-12T19:49:31.031Z,54.83
2023-02-12T19:53:33.000Z,56.17
2023-02-12T19:57:37.907Z,59.22
2023-02-12T20:01:40.585Z,54.97
2023-02-12T20:05:46.487Z,57.00
2023-02-12T20:09:51.395Z,69.15
2023-02-12T20:13:53.764Z,67.43
2023-02-12T20:17:56.047Z,79.25
2023-02-12T20:22:01.492Z,56.75
2023-02-12T20:26:05.857Z,55.00
2023-02-12T20:30:08.558Z,60.45
2023-02-12T20:34:15.063Z,64.18
2023-02-12T20:38:17.205Z,63.05
2023-02-12T20:42:19.146Z,64.63
2023-02-12T20:46:23.244Z,64.63
2023-02-12T20:50:25.396Z,59.10
2023-02-12T20:54:27.519Z,66.30
2023-02-12T20:58:29.585Z,59.33
2023-02-12T21:02:31.650Z,65.95
2023-02-12T21:06:33.944Z,60.22
2023-02-12T21:10:35.622Z,77.40
2023-02-12T21:14:37.655Z,66.60
2023-02-12T21:18:39.691Z,66.75
2023-02-12T21:22:41.374Z,90.03
2023-02-12T21:26:43.873Z,71.13
2023-02-12T21:30:46.314Z,73.43
2023-02-12T21:34:49.047Z,82.88
2023-02-12T21:38:52.194Z,98.80
2023-02-12T21:42:55.438Z,82.53
2023-02-12T21:46:57.550Z,84.20
2023-02-12T21:50:59.935Z,98.70
2023-02-12T21:55:02.273Z,98.22
2023-02-12T21:59:04.694Z,89.05
2023-02-12T22:03:06.395Z,83.40
2023-02-12T22:07:08.543Z,120.22
2023-02-12T22:11:12.001Z,78.40
2023-02-12T22:15:13.718Z,83.03
2023-02-12T22:19:15.860Z,75.32
2023-02-12T22:23:17.845Z,80.90
2023-02-12T22:27:19.797Z,80.88
2023-02-12T22:31:29.307Z,141.20
2023-02-12T22:35:32.281Z,88.05
2023-02-12T22:39:34.232Z,110.72
2023-02-12T22:43:39.982Z,92.35
2023-02-12T22:47:41.706Z,95.63
2023-02-12T22:51:43.722Z,90.45
2023-02-12T22:55:45.855Z,98.07
2023-02-12T22:59:49.131Z,109.68
2023-02-12T23:03:51.609Z,96.63
2023-02-12T23:07:53.587Z,120.97
2023-02-12T23:11:55.751Z,94.47
2023-02-12T23:15:58.820Z,108.35
2023-02-12T23:20:00.566Z,128.85
2023-02-12T23:24:02.736Z,98.63
2023-02-12T23:28:04.976Z,99.22
2023-02-12T23:32:06.957Z,87.82
2023-02-12T23:36:09.468Z,93.10
2023-02-12T23:40:11.973Z,85.93
2023-02-12T23:44:13.981Z,93.65
2023-02-12T23:48:15.766Z,86.88
2023-02-12T23:52:17.738Z,93.80
2023-02-12T23:56:19.657Z,89.15
